sensor_id;sensor_type;location;lat;lon;timestamp;pressure;altitude;pressure_sealevel;temperature;humidity
77192;BME280;66172;48.526;8.078;2023-08-06T00:01:35;98837.69;;;15.08;92.55
77192;BME280;66172;48.526;8.078;2023-08-06T00:04:00;98836.06;;;14.96;93.37
77192;BME280;66172;48.526;8.078;2023-08-06T00:06:26;98842.38;;;15.08;92.35
77192;BME280;66172;48.526;8.078;2023-08-06T00:08:52;98833.78;;;15.06;92.56
77192;BME280;66172;48.526;8.078;2023-08-06T00:11:18;98842.78;;;15.10;92.26
77192;BME280;66172;48.526;8.078;2023-08-06T00:13:44;98835.97;;;14.82;94.94
77192;BME280;66172;48.526;8.078;2023-08-06T00:16:13;98828.19;;;14.84;94.73
77192;BME280;66172;48.526;8.078;2023-08-06T00:18:40;98825.84;;;14.90;93.88
77192;BME280;66172;48.526;8.078;2023-08-06T00:21:06;98823.44;;;14.81;94.01
77192;BME280;66172;48.526;8.078;2023-08-06T00:23:32;98834.81;;;14.83;94.43
77192;BME280;66172;48.526;8.078;2023-08-06T00:25:57;98835.59;;;14.80;94.52
77192;BME280;66172;48.526;8.078;2023-08-06T00:28:23;98815.59;;;14.73;93.98
77192;BME280;66172;48.526;8.078;2023-08-06T00:30:53;98821.56;;;14.92;93.30
77192;BME280;66172;48.526;8.078;2023-08-06T00:33:21;98813.72;;;14.84;93.24
77192;BME280;66172;48.526;8.078;2023-08-06T00:35:47;98805.06;;;14.78;94.10
77192;BME280;66172;48.526;8.078;2023-08-06T00:38:13;98800.75;;;14.77;94.42
77192;BME280;66172;48.526;8.078;2023-08-06T00:40:39;98800.44;;;14.89;92.31
77192;BME280;66172;48.526;8.078;2023-08-06T00:43:04;98801.63;;;14.95;91.53
77192;BME280;66172;48.526;8.078;2023-08-06T00:45:34;98803.25;;;15.07;90.59
77192;BME280;66172;48.526;8.078;2023-08-06T00:48:01;98806.81;;;15.11;90.41
77192;BME280;66172;48.526;8.078;2023-08-06T00:50:27;98813.91;;;15.23;89.58
77192;BME280;66172;48.526;8.078;2023-08-06T00:52:54;98818.56;;;15.12;90.60
77192;BME280;66172;48.526;8.078;2023-08-06T00:55:20;98814.25;;;15.14;89.59
77192;BME280;66172;48.526;8.078;2023-08-06T00:57:46;98807.19;;;15.10;90.17
77192;BME280;66172;48.526;8.078;2023-08-06T01:00:12;98809.59;;;15.18;89.44
77192;BME280;66172;48.526;8.078;2023-08-06T01:02:38;98802.22;;;15.33;87.63
77192;BME280;66172;48.526;8.078;2023-08-06T01:05:04;98812.00;;;15.30;88.22
77192;BME280;66172;48.526;8.078;2023-08-06T01:10:12;98785.78;;;15.36;87.23
77192;BME280;66172;48.526;8.078;2023-08-06T01:12:53;98795.63;;;15.44;87.45
77192;BME280;66172;48.526;8.078;2023-08-06T01:15:28;98787.34;;;15.34;87.68
77192;BME280;66172;48.526;8.078;2023-08-06T01:17:54;98782.28;;;15.43;87.45
77192;BME280;66172;48.526;8.078;2023-08-06T01:20:20;98782.63;;;15.34;87.93
77192;BME280;66172;48.526;8.078;2023-08-06T01:22:46;98781.44;;;15.28;88.91
77192;BME280;66172;48.526;8.078;2023-08-06T01:25:15;98785.00;;;15.32;88.89
77192;BME280;66172;48.526;8.078;2023-08-06T01:27:48;98770.09;;;15.23;88.68
77192;BME280;66172;48.526;8.078;2023-08-06T01:30:21;98775.59;;;15.26;88.83
77192;BME280;66172;48.526;8.078;2023-08-06T01:32:53;98777.53;;;15.26;89.43
77192;BME280;66172;48.526;8.078;2023-08-06T01:35:25;98770.50;;;15.32;88.03
77192;BME280;66172;48.526;8.078;2023-08-06T01:37:51;98767.75;;;15.32;88.60
77192;BME280;66172;48.526;8.078;2023-08-06T01:40:17;98770.06;;;15.19;89.30
77192;BME280;66172;48.526;8.078;2023-08-06T01:42:43;98773.63;;;15.23;89.80
77192;BME280;66172;48.526;8.078;2023-08-06T01:45:09;98769.66;;;15.21;89.28
77192;BME280;66172;48.526;8.078;2023-08-06T01:47:35;98767.38;;;15.30;88.66
77192;BME280;66172;48.526;8.078;2023-08-06T01:50:02;98759.56;;;15.35;88.57
77192;BME280;66172;48.526;8.078;2023-08-06T01:52:28;98763.88;;;15.33;88.54
77192;BME280;66172;48.526;8.078;2023-08-06T01:54:54;98766.63;;;15.36;88.56
77192;BME280;66172;48.526;8.078;2023-08-06T01:57:20;98771.31;;;15.36;87.41
77192;BME280;66172;48.526;8.078;2023-08-06T01:59:46;98772.13;;;15.43;88.48
77192;BME280;66172;48.526;8.078;2023-08-06T02:02:12;98767.41;;;15.44;89.08
77192;BME280;66172;48.526;8.078;2023-08-06T02:04:38;98777.97;;;15.42;88.99
77192;BME280;66172;48.526;8.078;2023-08-06T02:07:04;98774.84;;;15.40;89.46
77192;BME280;66172;48.526;8.078;2023-08-06T02:09:30;98776.38;;;15.30;89.46
77192;BME280;66172;48.526;8.078;2023-08-06T02:11:56;98776.34;;;15.20;89.31
77192;BME280;66172;48.526;8.078;2023-08-06T02:14:22;98768.91;;;15.24;84.89
77192;BME280;66172;48.526;8.078;2023-08-06T02:16:48;98768.22;;;15.44;86.35
77192;BME280;66172;48.526;8.078;2023-08-06T02:19:15;98764.25;;;15.35;87.63
77192;BME280;66172;48.526;8.078;2023-08-06T02:21:41;98771.31;;;15.39;84.78
77192;BME280;66172;48.526;8.078;2023-08-06T02:24:07;98784.25;;;15.42;85.50
77192;BME280;66172;48.526;8.078;2023-08-06T02:26:32;98776.78;;;15.39;86.33
77192;BME280;66172;48.526;8.078;2023-08-06T02:28:58;98781.47;;;15.39;88.49
77192;BME280;66172;48.526;8.078;2023-08-06T02:31:24;98782.56;;;15.20;87.61
77192;BME280;66172;48.526;8.078;2023-08-06T02:33:50;98791.25;;;15.33;88.49
77192;BME280;66172;48.526;8.078;2023-08-06T02:36:16;98795.88;;;15.15;89.71
77192;BME280;66172;48.526;8.078;2023-08-06T02:38:42;98781.75;;;15.06;90.12
77192;BME280;66172;48.526;8.078;2023-08-06T02:41:08;98781.00;;;15.12;89.41
77192;BME280;66172;48.526;8.078;2023-08-06T02:43:34;98781.78;;;15.09;90.03
77192;BME280;66172;48.526;8.078;2023-08-06T02:46:00;98774.72;;;15.08;87.65
77192;BME280;66172;48.526;8.078;2023-08-06T02:48:26;98771.56;;;15.06;88.47
77192;BME280;66172;48.526;8.078;2023-08-06T02:50:52;98772.75;;;15.05;88.90
77192;BME280;66172;48.526;8.078;2023-08-06T02:53:18;98771.94;;;15.01;89.07
77192;BME280;66172;48.526;8.078;2023-08-06T02:55:47;98786.03;;;15.07;89.32
77192;BME280;66172;48.526;8.078;2023-08-06T02:58:14;98784.06;;;15.04;87.15
77192;BME280;66172;48.526;8.078;2023-08-06T03:00:40;98773.06;;;14.89;86.89
77192;BME280;66172;48.526;8.078;2023-08-06T03:03:06;98789.84;;;14.81;89.50
77192;BME280;66172;48.526;8.078;2023-08-06T03:05:32;98782.34;;;14.74;89.32
77192;BME280;66172;48.526;8.078;2023-08-06T03:07:58;98783.53;;;14.73;89.71
77192;BME280;66172;48.526;8.078;2023-08-06T03:10:24;98782.75;;;14.76;89.57
77192;BME280;66172;48.526;8.078;2023-08-06T03:12:50;98783.19;;;14.82;90.65
77192;BME280;66172;48.526;8.078;2023-08-06T03:15:15;98784.41;;;14.88;89.99
77192;BME280;66172;48.526;8.078;2023-08-06T03:17:41;98785.09;;;14.78;90.42
77192;BME280;66172;48.526;8.078;2023-08-06T03:20:08;98772.13;;;14.64;88.50
77192;BME280;66172;48.526;8.078;2023-08-06T03:22:33;98765.09;;;14.63;87.19
77192;BME280;66172;48.526;8.078;2023-08-06T03:24:59;98776.03;;;14.60;89.15
77192;BME280;66172;48.526;8.078;2023-08-06T03:27:25;98766.69;;;14.71;88.12
77192;BME280;66172;48.526;8.078;2023-08-06T03:29:51;98773.38;;;14.74;87.75
77192;BME280;66172;48.526;8.078;2023-08-06T03:32:17;98784.72;;;14.76;87.93
77192;BME280;66172;48.526;8.078;2023-08-06T03:34:43;98776.81;;;14.67;86.42
77192;BME280;66172;48.526;8.078;2023-08-06T03:37:09;98782.75;;;14.73;87.74
77192;BME280;66172;48.526;8.078;2023-08-06T03:39:35;98777.22;;;14.66;86.26
77192;BME280;66172;48.526;8.078;2023-08-06T03:42:00;98780.69;;;14.59;87.61
77192;BME280;66172;48.526;8.078;2023-08-06T03:44:26;98780.69;;;14.56;87.62
77192;BME280;66172;48.526;8.078;2023-08-06T03:46:53;98784.97;;;14.57;87.22
77192;BME280;66172;48.526;8.078;2023-08-06T03:49:19;98779.09;;;14.55;87.19
77192;BME280;66172;48.526;8.078;2023-08-06T03:51:45;98782.25;;;14.60;87.42
77192;BME280;66172;48.526;8.078;2023-08-06T03:54:12;98777.56;;;14.61;87.76
77192;BME280;66172;48.526;8.078;2023-08-06T03:56:38;98776.88;;;14.74;85.98
77192;BME280;66172;48.526;8.078;2023-08-06T03:59:04;98779.56;;;14.67;85.98
77192;BME280;66172;48.526;8.078;2023-08-06T04:01:29;98784.66;;;14.65;84.10
77192;BME280;66172;48.526;8.078;2023-08-06T04:03:55;98780.31;;;14.61;86.33
77192;BME280;66172;48.526;8.078;2023-08-06T04:06:21;98779.94;;;14.62;85.93
77192;BME280;66172;48.526;8.078;2023-08-06T04:08:47;98779.94;;;14.62;86.90
77192;BME280;66172;48.526;8.078;2023-08-06T04:11:13;98776.84;;;14.71;83.43
77192;BME280;66172;48.526;8.078;2023-08-06T04:13:42;98776.09;;;14.74;83.93
77192;BME280;66172;48.526;8.078;2023-08-06T04:16:08;98779.63;;;14.78;84.96
77192;BME280;66172;48.526;8.078;2023-08-06T04:18:34;98781.97;;;14.76;83.40
77192;BME280;66172;48.526;8.078;2023-08-06T04:21:01;98768.28;;;14.72;83.21
77192;BME280;66172;48.526;8.078;2023-08-06T04:23:27;98777.28;;;14.76;84.94
77192;BME280;66172;48.526;8.078;2023-08-06T04:25:56;98773.75;;;14.72;84.66
77192;BME280;66172;48.526;8.078;2023-08-06T04:28:22;98777.22;;;14.66;84.46
77192;BME280;66172;48.526;8.078;2023-08-06T04:30:48;98791.72;;;14.70;83.78
77192;BME280;66172;48.526;8.078;2023-08-06T04:33:14;98785.53;;;14.80;82.96
77192;BME280;66172;48.526;8.078;2023-08-06T04:35:40;98785.63;;;14.97;80.29
77192;BME280;66172;48.526;8.078;2023-08-06T04:38:06;98785.13;;;14.85;81.17
77192;BME280;66172;48.526;8.078;2023-08-06T04:40:35;98786.34;;;14.87;80.60
77192;BME280;66172;48.526;8.078;2023-08-06T04:43:02;98771.81;;;14.76;81.07
77192;BME280;66172;48.526;8.078;2023-08-06T04:45:28;98771.41;;;14.74;80.62
77192;BME280;66172;48.526;8.078;2023-08-06T04:47:54;98773.38;;;14.74;78.89
77192;BME280;66172;48.526;8.078;2023-08-06T04:50:20;98777.69;;;14.78;80.02
77192;BME280;66172;48.526;8.078;2023-08-06T04:52:46;98772.66;;;14.87;80.26
77192;BME280;66172;48.526;8.078;2023-08-06T04:55:12;98773.38;;;14.74;80.93
77192;BME280;66172;48.526;8.078;2023-08-06T04:57:37;98772.59;;;14.73;80.31
77192;BME280;66172;48.526;8.078;2023-08-06T05:00:04;98777.28;;;14.73;80.90
77192;BME280;66172;48.526;8.078;2023-08-06T05:02:30;98780.47;;;14.85;81.61
77192;BME280;66172;48.526;8.078;2023-08-06T05:04:58;98792.91;;;14.76;83.56
77192;BME280;66172;48.526;8.078;2023-08-06T05:07:24;98780.69;;;14.56;83.93
77192;BME280;66172;48.526;8.078;2023-08-06T05:09:50;98785.31;;;14.48;87.95
77192;BME280;66172;48.526;8.078;2023-08-06T05:12:16;98793.13;;;14.49;86.26
77192;BME280;66172;48.526;8.078;2023-08-06T05:14:41;98795.06;;;14.45;86.75
77192;BME280;66172;48.526;8.078;2023-08-06T05:17:07;98784.09;;;14.42;86.90
77192;BME280;66172;48.526;8.078;2023-08-06T05:19:33;98789.56;;;14.38;87.58
77192;BME280;66172;48.526;8.078;2023-08-06T05:21:59;98789.91;;;14.37;85.60
77192;BME280;66172;48.526;8.078;2023-08-06T05:24:26;98790.63;;;14.30;85.70
77192;BME280;66172;48.526;8.078;2023-08-06T05:26:52;98785.50;;;14.29;84.86
77192;BME280;66172;48.526;8.078;2023-08-06T05:29:18;98777.66;;;14.20;85.78
77192;BME280;66172;48.526;8.078;2023-08-06T05:31:44;98790.19;;;14.25;87.20
77192;BME280;66172;48.526;8.078;2023-08-06T05:34:10;98787.09;;;14.30;87.72
77192;BME280;66172;48.526;8.078;2023-08-06T05:36:35;98794.22;;;14.38;86.61
77192;BME280;66172;48.526;8.078;2023-08-06T05:39:01;98787.19;;;14.37;86.34
77192;BME280;66172;48.526;8.078;2023-08-06T05:41:27;98791.38;;;14.27;86.35
77192;BME280;66172;48.526;8.078;2023-08-06T05:43:53;98805.16;;;14.34;88.73
77192;BME280;66172;48.526;8.078;2023-08-06T05:46:19;98798.91;;;14.37;85.88
77192;BME280;66172;48.526;8.078;2023-08-06T05:48:45;98800.19;;;14.50;85.57
77192;BME280;66172;48.526;8.078;2023-08-06T05:51:11;98807.09;;;14.34;86.57
77192;BME280;66172;48.526;8.078;2023-08-06T05:53:38;98808.59;;;14.31;86.88
77192;BME280;66172;48.526;8.078;2023-08-06T05:56:04;98806.59;;;14.25;88.50
77192;BME280;66172;48.526;8.078;2023-08-06T05:58:30;98808.94;;;14.26;86.45
77192;BME280;66172;48.526;8.078;2023-08-06T06:00:56;98814.72;;;14.14;86.45
77192;BME280;66172;48.526;8.078;2023-08-06T06:03:22;98810.50;;;14.24;88.57
77192;BME280;66172;48.526;8.078;2023-08-06T06:05:48;98821.47;;;14.27;86.76
77192;BME280;66172;48.526;8.078;2023-08-06T06:08:14;98820.00;;;14.37;87.77
77192;BME280;66172;48.526;8.078;2023-08-06T06:10:40;98830.16;;;14.36;85.78
77192;BME280;66172;48.526;8.078;2023-08-06T06:13:06;98832.88;;;14.36;85.51
77192;BME280;66172;48.526;8.078;2023-08-06T06:15:32;98831.34;;;14.35;85.65
77192;BME280;66172;48.526;8.078;2023-08-06T06:17:57;98836.88;;;14.42;87.51
77192;BME280;66172;48.526;8.078;2023-08-06T06:20:23;98839.53;;;14.35;85.11
77192;BME280;66172;48.526;8.078;2023-08-06T06:22:49;98840.69;;;14.34;84.56
77192;BME280;66172;48.526;8.078;2023-08-06T06:25:15;98837.59;;;14.39;85.09
77192;BME280;66172;48.526;8.078;2023-08-06T06:27:41;98841.13;;;14.40;84.33
77192;BME280;66172;48.526;8.078;2023-08-06T06:30:07;98844.31;;;14.45;85.57
77192;BME280;66172;48.526;8.078;2023-08-06T06:32:33;98843.59;;;14.52;85.92
77192;BME280;66172;48.526;8.078;2023-08-06T06:34:59;98849.78;;;14.45;83.80
77192;BME280;66172;48.526;8.078;2023-08-06T06:37:25;98851.28;;;14.39;85.20
77192;BME280;66172;48.526;8.078;2023-08-06T06:39:51;98852.75;;;14.33;84.94
77192;BME280;66172;48.526;8.078;2023-08-06T06:42:17;98859.09;;;14.37;85.54
77192;BME280;66172;48.526;8.078;2023-08-06T06:44:43;98856.38;;;14.41;85.57
77192;BME280;66172;48.526;8.078;2023-08-06T06:47:09;98853.69;;;14.44;86.34
77192;BME280;66172;48.526;8.078;2023-08-06T06:49:35;98860.88;;;14.23;84.42
77192;BME280;66172;48.526;8.078;2023-08-06T06:52:01;98859.00;;;14.30;86.10
77192;BME280;66172;48.526;8.078;2023-08-06T06:54:26;98867.03;;;14.13;86.04
77192;BME280;66172;48.526;8.078;2023-08-06T06:56:52;98853.75;;;14.15;85.79
77192;BME280;66172;48.526;8.078;2023-08-06T06:59:18;98865.97;;;14.24;87.85
77192;BME280;66172;48.526;8.078;2023-08-06T07:01:44;98864.09;;;14.32;84.72
77192;BME280;66172;48.526;8.078;2023-08-06T07:04:10;98866.09;;;14.35;85.23
77192;BME280;66172;48.526;8.078;2023-08-06T07:06:36;98862.13;;;14.32;86.42
77192;BME280;66172;48.526;8.078;2023-08-06T07:09:02;98864.59;;;14.41;85.28
77192;BME280;66172;48.526;8.078;2023-08-06T07:11:27;98870.53;;;14.50;85.04
77192;BME280;66172;48.526;8.078;2023-08-06T07:13:57;98873.56;;;14.38;84.03
77192;BME280;66172;48.526;8.078;2023-08-06T07:16:26;98874.59;;;14.26;85.69
77192;BME280;66172;48.526;8.078;2023-08-06T07:18:53;98873.03;;;14.29;86.12
77192;BME280;66172;48.526;8.078;2023-08-06T07:21:19;98873.06;;;14.32;86.25
77192;BME280;66172;48.526;8.078;2023-08-06T07:23:45;98873.94;;;14.40;84.28
77192;BME280;66172;48.526;8.078;2023-08-06T07:26:11;98895.28;;;14.24;84.73
77192;BME280;66172;48.526;8.078;2023-08-06T07:28:37;98891.63;;;14.49;85.63
77192;BME280;66172;48.526;8.078;2023-08-06T07:31:03;98889.25;;;14.44;84.81
77192;BME280;66172;48.526;8.078;2023-08-06T07:33:29;98893.09;;;14.40;83.70
77192;BME280;66172;48.526;8.078;2023-08-06T07:35:55;98891.94;;;14.41;84.06
77192;BME280;66172;48.526;8.078;2023-08-06T07:38:21;98893.56;;;14.45;84.91
77192;BME280;66172;48.526;8.078;2023-08-06T07:40:47;98892.00;;;14.48;84.08
77192;BME280;66172;48.526;8.078;2023-08-06T07:43:13;98888.00;;;14.35;83.27
77192;BME280;66172;48.526;8.078;2023-08-06T07:45:39;98891.19;;;14.44;83.94
77192;BME280;66172;48.526;8.078;2023-08-06T07:48:05;98901.22;;;14.73;82.46
77192;BME280;66172;48.526;8.078;2023-08-06T07:50:31;98888.28;;;14.67;82.51
77192;BME280;66172;48.526;8.078;2023-08-06T07:52:57;98901.94;;;14.67;83.39
77192;BME280;66172;48.526;8.078;2023-08-06T07:55:23;98900.38;;;14.66;83.10
77192;BME280;66172;48.526;8.078;2023-08-06T07:57:49;98916.44;;;14.71;81.71
77192;BME280;66172;48.526;8.078;2023-08-06T08:00:15;98905.13;;;14.72;82.13
77192;BME280;66172;48.526;8.078;2023-08-06T08:02:41;98910.59;;;14.72;82.72
77192;BME280;66172;48.526;8.078;2023-08-06T08:05:07;98904.78;;;14.77;82.68
77192;BME280;66172;48.526;8.078;2023-08-06T08:07:34;98909.88;;;14.82;82.48
77192;BME280;66172;48.526;8.078;2023-08-06T08:09:59;98904.00;;;14.80;83.14
77192;BME280;66172;48.526;8.078;2023-08-06T08:12:25;98909.94;;;14.89;82.21
77192;BME280;66172;48.526;8.078;2023-08-06T08:14:51;98917.72;;;14.84;85.58
77192;BME280;66172;48.526;8.078;2023-08-06T08:17:17;98897.28;;;14.74;84.22
77192;BME280;66172;48.526;8.078;2023-08-06T08:19:43;98910.09;;;14.60;83.59
77192;BME280;66172;48.526;8.078;2023-08-06T08:22:09;98918.28;;;14.56;85.04
77192;BME280;66172;48.526;8.078;2023-08-06T08:24:35;98909.25;;;14.52;84.17
77192;BME280;66172;48.526;8.078;2023-08-06T08:27:01;98921.03;;;14.60;85.31
77192;BME280;66172;48.526;8.078;2023-08-06T08:29:27;98919.78;;;14.54;83.41
77192;BME280;66172;48.526;8.078;2023-08-06T08:31:53;98918.28;;;14.56;83.12
77192;BME280;66172;48.526;8.078;2023-08-06T08:34:19;98933.22;;;14.66;84.08
77192;BME280;66172;48.526;8.078;2023-08-06T08:36:45;98917.88;;;14.58;85.20
77192;BME280;66172;48.526;8.078;2023-08-06T08:39:13;98922.81;;;14.41;85.07
77192;BME280;66172;48.526;8.078;2023-08-06T08:41:40;98942.84;;;14.49;85.66
77192;BME280;66172;48.526;8.078;2023-08-06T08:44:09;98925.75;;;14.63;84.55
77192;BME280;66172;48.526;8.078;2023-08-06T08:46:40;98924.66;;;14.74;83.67
77192;BME280;66172;48.526;8.078;2023-08-06T08:49:06;98919.03;;;14.57;86.31
77192;BME280;66172;48.526;8.078;2023-08-06T08:51:33;98934.69;;;14.56;85.56
77192;BME280;66172;48.526;8.078;2023-08-06T08:54:02;98936.22;;;14.54;85.01
77192;BME280;66172;48.526;8.078;2023-08-06T08:56:29;98937.03;;;14.58;87.02
77192;BME280;66172;48.526;8.078;2023-08-06T08:58:56;98938.28;;;14.67;86.28
77192;BME280;66172;48.526;8.078;2023-08-06T09:01:22;98956.69;;;14.67;85.34
77192;BME280;66172;48.526;8.078;2023-08-06T09:03:48;98948.53;;;14.74;86.46
77192;BME280;66172;48.526;8.078;2023-08-06T09:06:15;98950.66;;;14.94;84.98
77192;BME280;66172;48.526;8.078;2023-08-06T09:08:48;98971.00;;;14.97;85.32
77192;BME280;66172;48.526;8.078;2023-08-06T09:11:16;98955.63;;;14.82;85.18
77192;BME280;66172;48.526;8.078;2023-08-06T09:13:43;98955.25;;;14.83;84.47
77192;BME280;66172;48.526;8.078;2023-08-06T09:16:08;98961.03;;;14.75;85.98
77192;BME280;66172;48.526;8.078;2023-08-06T09:18:34;98982.91;;;14.71;86.14
77192;BME280;66172;48.526;8.078;2023-08-06T09:21:04;98957.25;;;14.86;84.86
77192;BME280;66172;48.526;8.078;2023-08-06T09:23:31;98973.50;;;14.69;87.33
77192;BME280;66172;48.526;8.078;2023-08-06T09:25:57;98961.34;;;14.63;86.44
77192;BME280;66172;48.526;8.078;2023-08-06T09:28:23;98974.88;;;14.48;87.99
77192;BME280;66172;48.526;8.078;2023-08-06T09:30:50;98981.56;;;14.55;87.54
77192;BME280;66172;48.526;8.078;2023-08-06T09:33:19;98969.34;;;14.41;89.44
77192;BME280;66172;48.526;8.078;2023-08-06T09:35:46;98995.59;;;14.49;90.34
77192;BME280;66172;48.526;8.078;2023-08-06T09:38:13;98979.97;;;14.50;89.56
77192;BME280;66172;48.526;8.078;2023-08-06T09:40:39;98967.44;;;14.45;91.42
77192;BME280;66172;48.526;8.078;2023-08-06T09:43:05;98980.00;;;14.54;89.49
77192;BME280;66172;48.526;8.078;2023-08-06T09:48:03;98978.97;;;14.69;87.64
77192;BME280;66172;48.526;8.078;2023-08-06T09:50:30;98980.53;;;14.66;89.92
77192;BME280;66172;48.526;8.078;2023-08-06T09:53:00;98990.56;;;14.55;89.83
77192;BME280;66172;48.526;8.078;2023-08-06T09:55:26;99001.97;;;14.61;89.56
77192;BME280;66172;48.526;8.078;2023-08-06T09:57:53;99015.38;;;14.73;90.51
77192;BME280;66172;48.526;8.078;2023-08-06T10:00:20;99015.81;;;14.78;91.19
77192;BME280;66172;48.526;8.078;2023-08-06T10:02:46;99010.47;;;14.92;89.67
77192;BME280;66172;48.526;8.078;2023-08-06T10:05:14;99022.28;;;15.00;89.83
77192;BME280;66172;48.526;8.078;2023-08-06T10:07:40;99024.19;;;14.96;90.60
77192;BME280;66172;48.526;8.078;2023-08-06T10:10:06;99026.63;;;15.05;90.67
77192;BME280;66172;48.526;8.078;2023-08-06T10:12:35;99032.44;;;14.99;90.99
77192;BME280;66172;48.526;8.078;2023-08-06T10:15:07;99023.81;;;14.97;90.49
77192;BME280;66172;48.526;8.078;2023-08-06T10:17:36;99039.88;;;14.99;90.63
77192;BME280;66172;48.526;8.078;2023-08-06T10:20:05;99039.94;;;15.06;88.71
77192;BME280;66172;48.526;8.078;2023-08-06T10:22:33;99043.75;;;14.94;88.85
77192;BME280;66172;48.526;8.078;2023-08-06T10:25:00;99059.03;;;14.99;89.14
77192;BME280;66172;48.526;8.078;2023-08-06T10:27:32;99050.81;;;14.99;90.10
77192;BME280;66172;48.526;8.078;2023-08-06T10:30:29;99061.03;;;15.02;90.21
77192;BME280;66172;48.526;8.078;2023-08-06T10:33:03;99072.47;;;15.11;89.28
77192;BME280;66172;48.526;8.078;2023-08-06T10:38:15;99074.97;;;15.27;86.24
77192;BME280;66172;48.526;8.078;2023-08-06T10:43:27;99087.94;;;14.93;90.24
77192;BME280;66172;48.526;8.078;2023-08-06T10:45:53;99089.34;;;14.80;90.95
77192;BME280;66172;48.526;8.078;2023-08-06T10:48:39;99090.13;;;14.77;90.29
77192;BME280;66172;48.526;8.078;2023-08-06T10:51:10;99093.25;;;14.79;91.55
77192;BME280;66172;48.526;8.078;2023-08-06T10:53:36;99093.59;;;14.74;89.17
77192;BME280;66172;48.526;8.078;2023-08-06T10:58:41;99111.97;;;14.73;88.22
77192;BME280;66172;48.526;8.078;2023-08-06T11:01:06;99116.97;;;14.68;88.47
77192;BME280;66172;48.526;8.078;2023-08-06T11:03:33;99129.09;;;14.67;89.48
77192;BME280;66172;48.526;8.078;2023-08-06T11:05:58;99128.94;;;14.53;87.17
77192;BME280;66172;48.526;8.078;2023-08-06T11:08:28;99122.28;;;14.54;86.38
77192;BME280;66172;48.526;8.078;2023-08-06T11:10:54;99132.03;;;14.51;86.22
77192;BME280;66172;48.526;8.078;2023-08-06T11:13:21;99135.81;;;14.43;85.62
77192;BME280;66172;48.526;8.078;2023-08-06T11:15:47;99146.91;;;14.54;85.54
77192;BME280;66172;48.526;8.078;2023-08-06T11:18:13;99147.38;;;14.59;84.48
77192;BME280;66172;48.526;8.078;2023-08-06T11:20:39;99154.19;;;14.72;85.87
77192;BME280;66172;48.526;8.078;2023-08-06T11:23:05;99152.19;;;14.69;82.87
77192;BME280;66172;48.526;8.078;2023-08-06T11:25:36;99145.94;;;14.69;83.81
77192;BME280;66172;48.526;8.078;2023-08-06T11:28:02;99142.91;;;14.77;83.52
77192;BME280;66172;48.526;8.078;2023-08-06T11:30:28;99149.19;;;14.81;82.85
77192;BME280;66172;48.526;8.078;2023-08-06T11:32:54;99149.63;;;14.83;82.94
77192;BME280;66172;48.526;8.078;2023-08-06T11:35:20;99153.69;;;14.96;82.46
77192;BME280;66172;48.526;8.078;2023-08-06T11:37:46;99155.34;;;15.05;84.03
77192;BME280;66172;48.526;8.078;2023-08-06T11:40:14;99155.25;;;14.97;82.59
77192;BME280;66172;48.526;8.078;2023-08-06T11:42:41;99153.72;;;15.00;82.85
77192;BME280;66172;48.526;8.078;2023-08-06T11:45:08;99163.91;;;15.03;82.67
77192;BME280;66172;48.526;8.078;2023-08-06T11:47:38;99151.81;;;15.04;81.37
77192;BME280;66172;48.526;8.078;2023-08-06T11:50:04;99157.06;;;15.20;82.12
77192;BME280;66172;48.526;8.078;2023-08-06T11:52:30;99146.63;;;15.32;81.33
77192;BME280;66172;48.526;8.078;2023-08-06T11:57:32;99160.81;;;15.45;80.86
77192;BME280;66172;48.526;8.078;2023-08-06T12:00:11;99159.00;;;15.56;81.26
77192;BME280;66172;48.526;8.078;2023-08-06T12:02:41;99156.63;;;15.51;78.84
77192;BME280;66172;48.526;8.078;2023-08-06T12:07:58;99159.16;;;15.74;78.12
77192;BME280;66172;48.526;8.078;2023-08-06T12:10:26;99150.63;;;15.86;77.92
77192;BME280;66172;48.526;8.078;2023-08-06T12:12:53;99156.16;;;15.89;77.84
77192;BME280;66172;48.526;8.078;2023-08-06T12:15:18;99153.78;;;15.88;78.40
77192;BME280;66172;48.526;8.078;2023-08-06T12:17:44;99153.44;;;15.93;77.27
77192;BME280;66172;48.526;8.078;2023-08-06T12:20:10;99158.09;;;15.89;77.19
77192;BME280;66172;48.526;8.078;2023-08-06T12:22:37;99167.09;;;15.86;77.19
77192;BME280;66172;48.526;8.078;2023-08-06T12:25:06;99171.06;;;15.95;74.78
77192;BME280;66172;48.526;8.078;2023-08-06T12:27:34;99162.91;;;16.06;76.48
77192;BME280;66172;48.526;8.078;2023-08-06T12:30:00;99176.25;;;16.08;76.76
77192;BME280;66172;48.526;8.078;2023-08-06T12:32:26;99179.38;;;16.06;77.38
77192;BME280;66172;48.526;8.078;2023-08-06T12:34:52;99178.22;;;16.07;77.31
77192;BME280;66172;48.526;8.078;2023-08-06T12:37:18;99181.34;;;16.09;77.57
77192;BME280;66172;48.526;8.078;2023-08-06T12:39:44;99179.28;;;15.95;78.42
77192;BME280;66172;48.526;8.078;2023-08-06T12:42:09;99178.50;;;15.95;79.17
77192;BME280;66172;48.526;8.078;2023-08-06T12:44:36;99183.56;;;15.89;79.00
77192;BME280;66172;48.526;8.078;2023-08-06T12:47:02;99186.56;;;15.74;78.41
77192;BME280;66172;48.526;8.078;2023-08-06T12:49:28;99184.94;;;15.69;80.05
77192;BME280;66172;48.526;8.078;2023-08-06T12:51:55;99190.13;;;15.78;80.11
77192;BME280;66172;48.526;8.078;2023-08-06T12:54:22;99187.19;;;16.01;78.84
77192;BME280;66172;48.526;8.078;2023-08-06T12:56:48;99180.31;;;16.28;77.25
77192;BME280;66172;48.526;8.078;2023-08-06T12:59:15;99174.53;;;16.50;76.61
77192;BME280;66172;48.526;8.078;2023-08-06T13:01:42;99172.75;;;16.83;74.96
77192;BME280;66172;48.526;8.078;2023-08-06T13:04:08;99185.78;;;17.04;74.03
77192;BME280;66172;48.526;8.078;2023-08-06T13:06:35;99174.78;;;17.04;73.86
77192;BME280;66172;48.526;8.078;2023-08-06T13:09:12;99180.38;;;17.42;73.48
77192;BME280;66172;48.526;8.078;2023-08-06T13:11:39;99182.03;;;17.79;71.34
77192;BME280;66172;48.526;8.078;2023-08-06T13:14:09;99195.38;;;17.63;71.12
77192;BME280;66172;48.526;8.078;2023-08-06T13:16:37;99181.19;;;17.54;70.80